Time;durP1;ratioP1;P1;durP2;ratioP2;P2;SDS_P1;SDS_P2;PMS_P1;PMS_P2;Temp;Humidity;BMP_temperature;BMP_pressure;BME280_temperature;BME280_humidity;BME280_pressure;Samples;Min_cycle;Max_cycle;Signal;HPM_P1;HPM_P2
2022/01/03 00:01:26;;;;;;;24.27;4.28;;;;;;;9.17;88.74;101035.38;6220517;23;20044;-92
2022/01/03 00:03:51;;;;;;;27.63;4.30;;;;;;;8.82;88.76;100981.28;6220725;23;20007;-92
2022/01/03 00:06:26;;;;;;;22.17;3.88;;;;;;;8.84;88.93;100973.78;6249258;23;20008;-93
2022/01/03 00:08:52;;;;;;;26.60;4.10;;;;;;;8.95;88.50;100978.63;6226279;23;20015;-92
2022/01/03 00:11:20;;;;;;;27.92;4.72;;;;;;;9.13;88.27;101012.44;6221481;23;20008;-92
2022/01/03 00:13:51;;;;;;;21.38;4.10;;;;;;;9.19;88.18;101018.94;6221881;23;20027;-93
2022/01/03 00:16:20;;;;;;;21.20;4.80;;;;;;;9.36;88.14;101039.19;6220660;23;20387;-92
2022/01/03 00:18:53;;;;;;;26.40;5.15;;;;;;;9.23;87.36;101028.31;6195622;23;20333;-92
2022/01/03 00:21:20;;;;;;;26.60;4.75;;;;;;;9.21;86.55;101009.56;6219870;23;20047;-92
2022/01/03 00:23:57;;;;;;;28.23;4.53;;;;;;;9.18;87.59;101018.06;6219475;23;20032;-92
2022/01/03 00:26:27;;;;;;;25.33;4.85;;;;;;;9.33;86.53;101034.19;6219375;23;20008;-93
2022/01/03 00:28:59;;;;;;;18.10;4.50;;;;;;;9.34;86.92;101035.03;6218819;23;20348;-92
2022/01/03 00:31:43;;;;;;;21.30;4.47;;;;;;;9.36;86.59;101046.47;6218886;23;20419;-91
2022/01/03 00:34:12;;;;;;;22.50;4.93;;;;;;;9.43;85.74;101050.91;6218577;22;20008;-91
2022/01/03 00:36:43;;;;;;;20.42;4.40;;;;;;;9.15;85.77;101014.94;6218650;23;20004;-91
2022/01/03 00:39:09;;;;;;;23.95;4.75;;;;;;;9.47;85.59;101054.03;6245546;23;20058;-91
2022/01/03 00:41:43;;;;;;;20.67;4.45;;;;;;;9.42;85.69;101027.56;6193524;23;20012;-91
2022/01/03 00:44:12;;;;;;;22.98;5.57;;;;;;;9.47;85.29;101013.41;6218144;23;20474;-90
2022/01/03 00:46:44;;;;;;;26.98;5.65;;;;;;;9.53;84.06;101022.59;6218181;23;20023;-91
2022/01/03 00:49:10;;;;;;;19.55;4.68;;;;;;;9.37;83.59;100991.28;6218382;23;20027;-91
2022/01/03 00:51:35;;;;;;;27.25;5.07;;;;;;;9.29;84.26;100998.53;6245441;23;20000;-91
2022/01/03 00:54:04;;;;;;;19.83;4.38;;;;;;;9.51;83.60;101051.72;6218501;23;20137;-91
2022/01/03 00:56:36;;;;;;;21.15;4.90;;;;;;;9.44;83.67;101000.25;6218310;23;20324;-91
2022/01/03 00:59:18;;;;;;;22.17;5.27;;;;;;;9.31;83.51;100984.81;6218684;23;20406;-90
2022/01/03 01:01:51;;;;;;;;;;;;;;;9.74;84.16;101062.22;6245543;23;20291;-90
2022/01/03 01:04:20;;;;;;;22.23;5.13;;;;;;;9.36;82.63;101005.84;6217967;23;20231;-90
2022/01/03 01:06:51;;;;;;;23.70;5.20;;;;;;;9.46;82.59;100999.03;6218506;23;20011;-91
2022/01/03 01:09:22;;;;;;;24.37;5.27;;;;;;;9.36;83.09;100998.59;6218515;23;20312;-91
2022/01/03 01:11:52;;;;;;;19.90;4.60;;;;;;;9.56;83.74;101050.09;6245190;23;20558;-91
2022/01/03 01:14:18;;;;;;;24.13;4.20;;;;;;;9.70;83.14;101006.78;6245534;23;20087;-91
2022/01/03 01:16:56;;;;;;;22.83;4.63;;;;;;;9.34;83.24;100975.44;6218422;23;20016;-90
2022/01/03 01:19:26;;;;;;;24.95;5.30;;;;;;;9.52;83.59;101026.31;6196064;23;20008;-91
2022/01/03 01:21:55;;;;;;;20.35;4.90;;;;;;;9.50;83.65;101031.94;6218932;23;20008;-92
2022/01/03 01:24:23;;;;;;;25.90;5.43;;;;;;;9.46;83.99;101022.56;6218396;23;20004;-92
2022/01/03 01:29:36;;;;;;;24.42;4.95;;;;;;;9.35;84.58;101031.28;6245334;23;20042;-92
2022/01/03 01:32:03;;;;;;;26.02;5.00;;;;;;;9.22;84.56;101015.81;6218571;23;20050;-91
2022/01/03 01:34:33;;;;;;;26.73;4.75;;;;;;;9.22;83.87;101002.28;6218548;23;20012;-90
2022/01/03 01:37:03;;;;;;;24.50;4.50;;;;;;;9.22;84.04;101015.81;6219601;23;20058;-91
2022/01/03 01:39:30;;;;;;;23.73;5.40;;;;;;;9.27;84.06;101035.84;6220444;23;20099;-91
2022/01/03 01:42:02;;;;;;;28.50;5.93;;;;;;;9.17;83.92;101020.97;6220373;23;20035;-91
2022/01/03 01:44:32;;;;;;;21.60;4.70;;;;;;;9.57;84.77;101100.53;6247343;23;20004;-91
2022/01/03 01:47:04;;;;;;;25.00;5.28;;;;;;;9.40;84.77;101066.69;6220566;23;20094;-91
2022/01/03 01:49:37;;;;;;;24.27;5.10;;;;;;;9.27;85.55;101067.47;6220552;23;20431;-91
2022/01/03 01:52:03;;;;;;;23.95;5.22;;;;;;;9.40;85.22;101101.91;6220213;23;20004;-91
2022/01/03 01:54:36;;;;;;;21.63;4.50;;;;;;;9.06;85.46;101030.53;6245994;23;20018;-91
2022/01/03 01:57:13;;;;;;;22.05;4.95;;;;;;;9.27;85.71;101068.31;6219931;23;20004;-91
2022/01/03 01:59:50;;;;;;;21.42;4.60;;;;;;;8.94;85.65;101027.56;6220375;23;20008;-90
2022/01/03 02:02:27;;;;;;;23.58;5.18;;;;;;;8.85;86.09;101026.88;6220289;23;20019;-91
2022/01/03 02:05:15;;;;;;;25.98;4.90;;;;;;;8.95;86.99;101056.28;6220382;23;20047;-90
2022/01/03 02:08:03;;;;;;;23.33;4.88;;;;;;;8.71;87.02;101019.72;6219988;23;20142;-91
2022/01/03 02:11:04;;;;;;;26.13;4.70;;;;;;;8.69;87.06;101014.50;6220077;23;20008;-91
2022/01/03 02:13:33;;;;;;;32.95;5.35;;;;;;;8.64;87.53;101027.81;6087420;23;20465;-91
2022/01/03 02:16:03;;;;;;;26.17;4.57;;;;;;;8.65;87.23;101031.31;6219699;23;20008;-91
2022/01/03 02:18:31;;;;;;;27.55;4.57;;;;;;;8.64;87.50;101032.38;6219942;23;20039;-91
2022/01/03 02:20:57;;;;;;;24.38;4.55;;;;;;;8.72;87.29;101051.97;6246640;23;20077;-91
2022/01/03 02:23:23;;;;;;;22.42;3.90;;;;;;;8.80;87.19;101064.53;6247157;23;20038;-91
2022/01/03 02:25:49;;;;;;;27.80;5.22;;;;;;;8.92;87.27;101091.88;6219573;23;20330;-91
2022/01/03 02:28:20;;;;;;;22.83;4.00;;;;;;;8.88;87.53;101086.00;6219890;23;20087;-91
2022/01/03 02:30:53;;;;;;;20.30;4.22;;;;;;;8.75;88.41;101072.38;6219574;23;20308;-91
2022/01/03 02:33:18;;;;;;;;;;;;;;;8.97;88.49;101105.63;6220774;23;20398;-91
2022/01/03 02:35:47;;;;;;;24.60;4.75;;;;;;;8.46;88.19;101031.00;6247132;23;19912;-91
2022/01/03 02:38:22;;;;;;;23.90;4.72;;;;;;;8.44;88.44;101033.06;6194856;23;20346;-91
2022/01/03 02:40:48;;;;;;;27.33;4.95;;;;;;;8.47;88.44;101034.53;6219832;23;20096;-91
2022/01/03 02:43:20;;;;;;;22.90;4.47;;;;;;;8.48;88.12;101028.94;6246453;23;20004;-91
2022/01/03 02:45:48;;;;;;;24.83;4.65;;;;;;;8.66;87.55;101057.34;6220150;23;20486;-91
2022/01/03 02:48:21;;;;;;;20.60;4.13;;;;;;;8.59;87.77;101036.50;6218950;23;20354;-91
2022/01/03 02:50:49;;;;;;;;;;;;;;;9.05;87.95;101102.78;6218860;23;20008;-91
2022/01/03 02:53:15;;;;;;;21.30;3.70;;;;;;;8.71;88.00;101054.88;6219279;23;20323;-91
2022/01/03 02:55:41;;;;;;;26.42;5.25;;;;;;;8.69;87.70;101060.47;6219788;23;20008;-91
2022/01/03 02:58:07;;;;;;;23.65;4.47;;;;;;;8.69;87.93;101081.31;6219525;22;20073;-91
2022/01/03 03:00:49;;;;;;;27.58;4.88;;;;;;;8.53;87.76;101034.59;6246290;23;20008;-91
2022/01/03 03:03:16;;;;;;;24.42;4.40;;;;;;;8.67;87.87;101050.91;6220528;23;20008;-91
2022/01/03 03:05:43;;;;;;;26.30;5.22;;;;;;;8.93;88.17;101104.34;6247048;23;20011;-91
2022/01/03 03:08:09;;;;;;;30.67;5.60;;;;;;;8.51;88.28;101039.34;6178426;23;20435;-91
2022/01/03 03:10:41;;;;;;;24.80;4.78;;;;;;;8.77;87.96;101087.41;6225719;23;20012;-91
2022/01/03 03:13:07;;;;;;;24.75;4.72;;;;;;;8.82;88.31;101085.97;6246595;23;20039;-90
2022/01/03 03:15:34;;;;;;;24.13;4.32;;;;;;;8.52;88.17;101037.47;6220018;23;20004;-91
2022/01/03 03:18:01;;;;;;;25.67;4.00;;;;;;;8.66;87.96;101073.59;6219352;23;20016;-91
2022/01/03 03:20:28;;;;;;;31.33;5.30;;;;;;;8.60;87.88;101046.28;6195053;23;20015;-91
2022/01/03 03:22:58;;;;;;;24.42;4.57;;;;;;;8.60;87.80;101048.97;6219330;23;20065;-90
2022/01/03 03:25:26;;;;;;;31.05;4.55;;;;;;;8.69;87.68;101060.47;6219422;23;20008;-91
2022/01/03 03:27:58;;;;;;;23.90;4.22;;;;;;;8.93;87.48;101088.97;6219674;23;20004;-91
2022/01/03 03:30:31;;;;;;;25.73;4.82;;;;;;;9.14;87.65;101114.28;6219268;23;20016;-91
2022/01/03 03:33:17;;;;;;;21.55;4.40;;;;;;;8.81;88.00;101068.06;6245980;23;20431;-91
2022/01/03 03:35:43;;;;;;;26.45;5.20;;;;;;;8.74;87.66;101043.66;6249174;22;20098;-91
2022/01/03 03:38:14;;;;;;;27.15;4.28;;;;;;;8.70;88.30;101032.41;6249577;22;20091;-91
2022/01/03 03:40:43;;;;;;;36.30;5.53;;;;;;;8.76;88.00;101045.13;6276079;22;20343;-91
2022/01/03 03:43:13;;;;;;;25.00;5.13;;;;;;;8.77;88.03;101043.28;6249477;22;20011;-91
2022/01/03 03:45:42;;;;;;;27.27;4.40;;;;;;;9.07;87.98;101079.03;6249410;22;20134;-91
2022/01/03 03:48:10;;;;;;;28.80;5.20;;;;;;;8.77;87.67;101019.75;6223896;22;20377;-91
2022/01/03 03:50:36;;;;;;;27.65;5.15;;;;;;;8.94;87.69;101058.13;6224911;22;20431;-91
2022/01/03 03:53:03;;;;;;;31.50;5.25;;;;;;;8.99;87.41;101062.13;6249411;22;20003;-90
2022/01/03 03:55:29;;;;;;;24.45;4.47;;;;;;;8.76;87.53;101031.59;6249051;22;20099;-91
2022/01/03 03:57:54;;;;;;;32.28;5.22;;;;;;;8.69;88.13;101036.13;6249137;22;20127;-90
2022/01/03 04:00:20;;;;;;;24.25;5.53;;;;;;;8.59;88.22;101033.81;6249154;22;20095;-91
2022/01/03 04:02:49;;;;;;;26.95;4.28;;;;;;;8.66;87.67;101041.13;6224054;22;20501;-90
2022/01/03 04:05:15;;;;;;;25.92;4.68;;;;;;;8.70;87.59;101035.13;6250148;22;20082;-91
2022/01/03 04:07:40;;;;;;;31.33;4.70;;;;;;;8.95;88.03;101092.28;6249702;22;20085;-91
2022/01/03 04:10:11;;;;;;;27.45;4.53;;;;;;;8.80;87.97;101058.25;6249384;22;20003;-91
2022/01/03 04:12:40;;;;;;;28.10;4.75;;;;;;;8.76;87.72;101022.66;6249571;22;20003;-91
2022/01/03 04:15:08;;;;;;;26.23;4.47;;;;;;;8.78;87.70;101017.88;6248863;22;20311;-90
2022/01/03 04:17:34;;;;;;;28.30;4.93;;;;;;;8.82;87.13;101032.69;6249154;22;20053;-88
2022/01/03 04:20:03;;;;;;;23.42;3.95;;;;;;;9.11;87.23;101060.53;6249052;22;20003;-88
2022/01/03 04:22:32;;;;;;;22.35;4.15;;;;;;;8.83;87.35;101018.13;6276046;22;20031;-88
2022/01/03 04:24:58;;;;;;;30.52;4.57;;;;;;;8.88;87.19;101014.81;6276355;22;20003;-88
2022/01/03 04:27:23;;;;;;;28.92;4.47;;;;;;;9.28;87.57;101071.84;6275926;22;20004;-88
2022/01/03 04:29:49;;;;;;;32.65;5.05;;;;;;;8.90;87.02;101001.91;6248647;22;20064;-88
2022/01/03 04:32:16;;;;;;;27.08;4.93;;;;;;;8.85;87.18;100999.81;6248521;22;19999;-89
2022/01/03 04:34:47;;;;;;;28.52;4.32;;;;;;;8.99;87.29;101030.50;6248866;22;20102;-89
2022/01/03 04:37:15;;;;;;;29.87;4.93;;;;;;;8.86;87.32;101006.91;6248984;22;20423;-89
2022/01/03 04:39:45;;;;;;;27.63;4.60;;;;;;;9.30;86.96;101064.34;6249102;22;20247;-88
2022/01/03 04:42:10;;;;;;;24.58;4.40;;;;;;;8.95;86.44;101013.00;6248623;22;20111;-88
2022/01/03 04:44:41;;;;;;;29.27;4.70;;;;;;;9.39;86.41;101070.44;6275965;22;20382;-88
2022/01/03 04:47:07;;;;;;;23.13;3.95;;;;;;;9.15;86.57;101039.31;6224840;22;20007;-88
2022/01/03 04:49:32;;;;;;;28.52;5.40;;;;;;;9.05;86.11;101027.00;6275456;22;20365;-88
2022/01/03 04:51:58;;;;;;;28.77;4.22;;;;;;;9.17;86.33;101021.84;6249000;22;20033;-88
2022/01/03 04:54:23;;;;;;;26.42;4.30;;;;;;;9.33;86.49;101058.56;6248391;22;20000;-88
2022/01/03 04:56:49;;;;;;;29.98;5.18;;;;;;;9.21;86.33;101043.91;6198666;22;20015;-88
2022/01/03 04:59:17;;;;;;;24.92;4.68;;;;;;;9.18;86.28;101028.06;6249160;22;20091;-87
2022/01/03 05:01:42;;;;;;;26.73;4.50;;;;;;;9.27;86.11;101049.38;6248944;22;20035;-88
2022/01/03 05:04:10;;;;;;;32.88;5.22;;;;;;;9.17;86.10;101012.88;6249096;22;20007;-88
2022/01/03 05:06:39;;;;;;;23.20;4.28;;;;;;;9.05;86.38;101018.00;6248295;22;20304;-88
2022/01/03 05:09:04;;;;;;;31.63;5.30;;;;;;;9.29;86.42;101068.13;6249124;22;20007;-89
2022/01/03 05:11:30;;;;;;;29.05;5.65;;;;;;;9.36;85.88;101047.31;6249529;22;20312;-88
2022/01/03 05:13:56;;;;;;;28.73;4.43;;;;;;;9.09;86.33;101000.34;6277595;22;20020;-89
2022/01/03 05:16:22;;;;;;;26.05;4.70;;;;;;;9.46;86.35;101064.03;6250944;22;20435;-89
2022/01/03 05:18:47;;;;;;;29.48;4.55;;;;;;;9.20;86.00;101023.31;6224295;22;20019;-88
2022/01/03 05:21:15;;;;;;;22.35;4.55;;;;;;;9.22;86.29;101045.59;6225996;22;20008;-88
2022/01/03 05:23:40;;;;;;;24.27;4.57;;;;;;;8.97;85.61;100983.03;6250598;22;20015;-88
2022/01/03 05:26:06;;;;;;;19.15;4.30;;;;;;;9.27;85.54;101011.47;6250674;22;20068;-88
2022/01/03 05:28:32;;;;;;;24.02;4.35;;;;;;;9.25;85.68;101007.28;6277431;22;20010;-88
2022/01/03 05:30:57;;;;;;;25.65;3.78;;;;;;;9.28;86.30;101039.38;6277870;22;20016;-89
2022/01/03 05:33:25;;;;;;;25.15;4.05;;;;;;;9.34;85.80;101026.91;6250774;22;20049;-88
2022/01/03 05:35:51;;;;;;;23.10;4.57;;;;;;;9.08;86.40;100990.53;6250577;22;20020;-88
2022/01/03 05:38:17;;;;;;;24.65;3.70;;;;;;;9.16;86.45;101013.91;6225289;22;20091;-88
2022/01/03 05:40:42;;;;;;;25.95;4.03;;;;;;;8.99;86.01;100983.63;6249949;22;20041;-88
2022/01/03 05:43:10;;;;;;;25.27;4.40;;;;;;;8.98;85.73;100976.59;6277256;22;20008;-88
2022/01/03 05:45:37;;;;;;;26.38;4.80;;;;;;;9.01;86.16;100993.25;6251292;22;20015;-88
2022/01/03 05:48:06;;;;;;;25.10;4.00;;;;;;;8.99;85.96;100981.78;6277426;22;20083;-88
2022/01/03 05:50:31;;;;;;;23.88;4.00;;;;;;;9.15;85.51;100988.69;6277569;22;20070;-88
2022/01/03 05:52:57;;;;;;;26.98;4.85;;;;;;;8.98;85.54;100963.88;6249977;22;20114;-88
2022/01/03 05:55:24;;;;;;;24.73;4.32;;;;;;;9.03;85.70;100993.03;6277495;22;20050;-89
2022/01/03 05:57:49;;;;;;;28.30;4.30;;;;;;;8.90;86.08;100958.63;6225124;22;20336;-91
2022/01/03 06:00:18;;;;;;;25.80;3.78;;;;;;;9.06;86.75;101003.47;6225600;22;20011;-91
2022/01/03 06:02:44;;;;;;;26.67;4.03;;;;;;;9.07;86.47;100992.44;6250932;22;20423;-91
2022/01/03 06:05:19;;;;;;;18.52;3.67;;;;;;;9.08;86.57;100996.81;6253027;22;20112;-88
2022/01/03 06:07:45;;;;;;;25.67;4.22;;;;;;;9.17;87.07;101029.97;6279544;22;20435;-88
2022/01/03 06:10:15;;;;;;;20.60;3.78;;;;;;;8.81;87.09;100957.97;6249894;22;20011;-88
2022/01/03 06:12:45;;;;;;;24.25;4.20;;;;;;;9.06;87.31;101011.56;6249761;22;20082;-91
2022/01/03 06:15:12;;;;;;;22.02;4.25;;;;;;;8.86;87.31;100979.00;6226692;22;20038;-89
2022/01/03 06:17:37;;;;;;;25.20;3.92;;;;;;;8.95;87.69;100986.75;6249078;22;20109;-86
2022/01/03 06:20:03;;;;;;;26.70;4.05;;;;;;;9.00;87.67;100986.16;6224783;22;20011;-88
2022/01/03 06:28:13;;;;;;;21.05;4.75;;;;;;;8.66;88.65;100957.28;6279137;22;20027;-91
2022/01/03 06:30:41;;;;;;;21.70;3.60;;;;;;;8.73;88.96;100977.91;6226093;22;20016;-91
2022/01/03 06:33:17;;;;;;;22.00;3.90;;;;;;;8.54;88.74;100943.47;6251257;22;20438;-93
2022/01/03 06:35:43;;;;;;;28.65;4.07;;;;;;;8.58;89.05;100950.16;6229609;23;20095;-93
2022/01/03 06:38:12;;;;;;;26.02;3.80;;;;;;;8.58;90.33;100955.56;6221163;23;20414;-93
2022/01/03 06:40:43;;;;;;;25.38;3.92;;;;;;;8.48;92.24;100957.81;6247353;23;20050;-94
2022/01/03 06:43:09;;;;;;;25.45;3.80;;;;;;;8.11;95.08;100959.81;6196298;23;20142;-94
2022/01/03 06:45:35;;;;;;;24.77;4.03;;;;;;;7.98;96.80;100965.94;6195437;23;20016;-93
2022/01/03 06:48:00;;;;;;;24.35;3.92;;;;;;;7.87;97.22;100941.13;6195942;23;20016;-94
2022/01/03 06:50:30;;;;;;;23.75;4.03;;;;;;;7.74;99.21;100951.81;6221032;23;20015;-94
2022/01/03 06:52:57;;;;;;;25.58;4.30;;;;;;;8.03;99.84;100982.38;6221052;23;20492;-93
2022/01/03 06:55:23;;;;;;;27.15;4.35;;;;;;;7.69;100.00;100933.50;6220991;23;20027;-94
2022/01/03 06:57:49;;;;;;;24.10;4.07;;;;;;;8.06;100.00;101009.00;6221389;23;20431;-93
2022/01/03 07:00:15;;;;;;;29.13;4.88;;;;;;;7.86;100.00;101001.56;6195291;23;20008;-92
2022/01/03 07:02:42;;;;;;;25.20;4.25;;;;;;;7.86;100.00;101006.97;6220364;23;20435;-93
2022/01/03 07:05:19;;;;;;;22.33;3.80;;;;;;;7.69;100.00;100983.94;6195505;23;20355;-93
2022/01/03 07:07:44;;;;;;;28.63;4.38;;;;;;;7.89;100.00;101014.69;6246906;23;20004;-92
2022/01/03 07:10:11;;;;;;;24.67;4.22;;;;;;;7.55;100.00;100946.03;6170822;23;20069;-93
2022/01/03 07:12:40;;;;;;;28.02;3.83;;;;;;;7.51;100.00;100942.06;6220032;23;20319;-93
2022/01/03 07:20:38;;;;;;;23.33;3.90;;;;;;;7.64;100.00;100956.69;6247149;23;20015;-91
2022/01/03 07:23:05;;;;;;;27.48;4.15;;;;;;;7.75;100.00;100988.59;6220646;23;20332;-91
2022/01/03 07:25:31;;;;;;;25.02;4.10;;;;;;;7.57;100.00;100939.59;6219078;23;20332;-90
2022/01/03 07:27:56;;;;;;;22.92;3.60;;;;;;;7.72;100.00;100980.84;6218876;23;20016;-86
2022/01/03 07:30:22;;;;;;;21.38;3.67;;;;;;;7.84;100.00;101005.50;6218494;23;20009;-86
2022/01/03 07:32:47;;;;;;;23.20;4.00;;;;;;;7.73;100.00;100986.06;6218824;23;20087;-86
2022/01/03 07:35:19;;;;;;;21.52;3.97;;;;;;;7.84;100.00;100994.69;6219035;23;20020;-91
2022/01/03 07:37:45;;;;;;;27.20;3.83;;;;;;;7.55;100.00;100954.13;6219925;23;20346;-91
2022/01/03 07:40:12;;;;;;;25.48;4.15;;;;;;;7.72;99.59;100961.97;6220592;23;20035;-91
2022/01/03 07:42:42;;;;;;;22.10;3.90;;;;;;;7.73;99.70;100939.31;6220111;23;20004;-91
2022/01/03 07:45:16;;;;;;;17.52;3.88;;;;;;;7.76;98.91;100947.03;6195371;23;20325;-90
2022/01/03 07:47:42;;;;;;;22.00;3.58;;;;;;;8.29;98.05;101008.78;6220207;23;20428;-91
2022/01/03 07:50:11;;;;;;;22.52;3.50;;;;;;;7.96;97.99;100967.97;6195626;23;20043;-94
2022/01/03 07:52:38;;;;;;;24.40;3.80;;;;;;;8.08;97.21;100972.66;6195121;23;20439;-94
2022/01/03 07:55:15;;;;;;;20.60;3.85;;;;;;;8.03;96.98;100967.03;6220278;23;20378;-92
2022/01/03 07:57:54;;;;;;;18.48;3.40;;;;;;;8.14;96.35;100976.44;6216915;23;20091;-92
2022/01/03 08:00:20;;;;;;;25.58;4.13;;;;;;;8.21;95.50;100976.53;6245183;23;20078;-92
2022/01/03 08:02:50;;;;;;;19.83;3.55;;;;;;;8.19;95.43;100981.28;6217914;23;20015;-93
2022/01/03 08:05:21;;;;;;;24.00;4.43;;;;;;;8.26;94.96;100971.34;6219870;23;20347;-93
2022/01/03 08:07:48;;;;;;;24.70;3.95;;;;;;;8.22;94.80;100962.81;6218858;23;20011;-92
2022/01/03 08:10:24;;;;;;;23.52;4.20;;;;;;;8.40;94.36;100980.38;6220299;23;20088;-93
2022/01/03 08:12:53;;;;;;;21.40;3.53;;;;;;;8.52;94.16;100999.63;6219659;23;20004;-92
2022/01/03 08:15:31;;;;;;;;;;;;;;;;;;;;;
2022/01/03 08:17:57;;;;;;;20.58;3.55;;;;;;;8.69;93.41;101025.31;6246298;23;20086;-91
2022/01/03 08:20:29;;;;;;;18.45;4.38;;;;;;;8.35;93.34;100969.31;6220413;23;20003;-90
2022/01/03 08:22:56;;;;;;;26.38;4.30;;;;;;;8.39;92.95;100959.78;6226321;23;20004;-90
2022/01/03 08:25:36;;;;;;;21.05;3.92;;;;;;;8.40;92.78;100972.25;6221014;23;20370;-90
2022/01/03 08:28:04;;;;;;;20.60;4.05;;;;;;;8.65;92.95;100990.75;6218548;23;20012;-87
2022/01/03 08:30:41;;;;;;;24.55;3.95;;;;;;;8.78;92.83;101023.28;6219128;23;20012;-90
2022/01/03 08:33:44;;;;;;;;;;;;;;;;;;;;;
2022/01/03 08:36:44;;;;;;;;;;;;;;;;;;;;;
2022/01/03 08:39:19;;;;;;;18.73;3.60;;;;;;;8.55;91.93;100950.56;6246491;23;20083;-91
2022/01/03 08:41:56;;;;;;;26.33;4.10;;;;;;;8.80;91.59;100988.78;6219055;23;20032;-91
2022/01/03 08:47:37;;;;;;;27.70;4.63;;;;;;;8.85;91.68;100996.28;6204309;23;20095;-93
2022/01/03 08:50:21;;;;;;;22.80;3.90;;;;;;;8.65;91.65;100956.44;6219449;23;20031;-93
2022/01/03 08:52:53;;;;;;;20.17;3.53;;;;;;;8.69;91.56;100973.09;6219214;23;20083;-93
2022/01/03 09:02:11;;;;;;;24.25;3.85;;;;;;;8.83;90.24;100984.81;6197910;23;20019;-89
2022/01/03 09:04:39;;;;;;;20.05;3.50;;;;;;;9.04;90.61;101025.31;6216968;23;20012;-91
2022/01/03 09:07:15;;;;;;;19.75;3.80;;;;;;;8.91;90.13;100971.13;6244522;23;20070;-88
2022/01/03 09:09:49;;;;;;;17.13;3.60;;;;;;;8.95;89.18;100964.28;6217580;23;20004;-89
2022/01/03 09:12:17;;;;;;;20.45;4.20;;;;;;;9.06;89.12;100969.09;6217389;23;20000;-89
2022/01/03 09:14:46;;;;;;;27.40;4.35;;;;;;;9.12;88.79;100967.44;6217454;23;20031;-90
2022/01/03 09:17:14;;;;;;;18.90;3.60;;;;;;;9.38;87.88;101001.09;6217455;23;20079;-90
2022/01/03 09:19:42;;;;;;;24.45;3.65;;;;;;;9.30;88.26;100970.44;6193156;23;20011;-90
2022/01/03 09:22:17;;;;;;;15.90;3.13;;;;;;;9.50;86.99;100994.03;6192671;23;20077;-90
2022/01/03 09:30:26;;;;;;;24.55;3.92;;;;;;;9.35;86.79;100972.53;6244230;23;20027;-89
2022/01/03 09:32:52;;;;;;;22.10;3.50;;;;;;;9.33;86.46;100958.38;6217327;23;20000;-88
2022/01/03 09:35:23;;;;;;;23.38;4.13;;;;;;;9.33;86.24;100962.94;6244248;23;20118;-88
2022/01/03 09:37:48;;;;;;;22.67;3.88;;;;;;;9.42;86.16;100949.00;6244238;23;20004;-88
2022/01/03 09:40:16;;;;;;;21.38;4.20;;;;;;;9.53;85.89;100974.66;6191722;23;20018;-89
2022/01/03 09:42:47;;;;;;;24.60;4.45;;;;;;;9.32;86.14;100939.63;6217441;23;20062;-89
2022/01/03 09:45:16;;;;;;;21.83;4.20;;;;;;;9.30;86.04;100939.81;6217159;23;20083;-89
2022/01/03 09:47:44;;;;;;;28.67;4.15;;;;;;;9.33;86.04;100941.28;6192167;23;20016;-89
2022/01/03 09:50:17;;;;;;;21.73;3.92;;;;;;;9.38;86.05;100941.50;6244996;23;20032;-86
2022/01/03 09:52:47;;;;;;;19.98;3.90;;;;;;;9.57;85.90;100956.94;6244163;23;20000;-87
2022/01/03 09:55:16;;;;;;;23.08;3.85;;;;;;;9.37;86.16;100947.97;6244180;23;20071;-86
2022/01/03 09:57:45;;;;;;;20.85;4.30;;;;;;;9.71;86.49;100998.44;6217115;23;20004;-87
2022/01/03 10:00:23;;;;;;;24.05;4.00;;;;;;;9.36;86.28;100944.44;6244758;23;20023;-86
2022/01/03 10:02:50;;;;;;;22.88;4.25;;;;;;;9.50;86.70;100966.94;6196575;23;20026;-86
2022/01/03 10:05:16;;;;;;;23.17;3.85;;;;;;;9.55;86.08;100950.06;6218781;23;20004;-87
2022/01/03 10:07:42;;;;;;;20.77;3.88;;;;;;;9.77;85.73;100992.22;6168977;23;20004;-88
2022/01/03 10:10:09;;;;;;;24.30;4.45;;;;;;;9.41;85.83;100955.47;6219136;22;20004;-89
2022/01/03 10:12:36;;;;;;;20.58;3.63;;;;;;;9.39;86.36;100929.63;6218029;23;20004;-89
2022/01/03 10:15:05;;;;;;;17.48;4.07;;;;;;;9.71;85.57;100971.34;6218798;23;20017;-90
2022/01/03 10:17:35;;;;;;;22.92;4.28;;;;;;;9.77;84.98;100961.56;6245759;23;20035;-89
2022/01/03 10:20:01;;;;;;;21.15;4.35;;;;;;;9.55;84.61;100937.38;6219554;23;20046;-89
2022/01/03 10:22:31;;;;;;;21.25;3.53;;;;;;;9.57;84.55;100940.69;6245598;23;20024;-87
2022/01/03 10:25:26;;;;;;;21.50;3.90;;;;;;;9.81;85.07;100989.91;6218860;23;20000;-87
2022/01/03 10:27:55;;;;;;;23.23;4.22;;;;;;;9.96;84.70;100981.59;6218627;23;20016;-86
2022/01/03 10:30:45;;;;;;;18.92;3.75;;;;;;;10.03;85.01;100987.84;6218677;23;20092;-87
2022/01/03 10:33:17;;;;;;;21.23;3.67;;;;;;;9.93;84.30;100979.28;6245343;23;20000;-87
2022/01/03 10:35:50;;;;;;;;;;;;;;;10.11;84.04;100989.50;6246032;23;20037;-87
2022/01/03 10:38:43;;;;;;;16.48;3.60;;;;;;;9.81;84.18;100955.50;6217760;23;19904;-89
2022/01/03 10:41:21;;;;;;;21.95;4.30;;;;;;;9.98;84.28;100955.94;6215067;23;20003;-89
2022/01/03 10:43:58;;;;;;;22.30;3.97;;;;;;;10.03;84.07;100959.91;6218670;23;20004;-89
2022/01/03 10:46:32;;;;;;;21.83;3.72;;;;;;;10.15;83.76;100961.75;6218993;23;20011;-89
2022/01/03 10:49:18;;;;;;;19.55;3.30;;;;;;;10.24;83.52;100959.66;6218176;23;20313;-89
2022/01/03 10:51:47;;;;;;;22.33;4.15;;;;;;;10.06;83.25;100919.66;6218820;23;20004;-89
2022/01/03 10:54:17;;;;;;;21.30;4.15;;;;;;;10.01;82.28;100895.06;6245192;23;19996;-89
2022/01/03 10:56:48;;;;;;;16.48;3.85;;;;;;;10.26;82.07;100929.63;6218707;23;20008;-90
2022/01/03 10:59:34;;;;;;;20.27;4.30;;;;;;;10.42;81.42;100931.09;6218729;23;20004;-89
2022/01/03 11:02:05;;;;;;;19.25;3.53;;;;;;;10.38;82.01;100927.13;6218507;23;20720;-87
2022/01/03 11:04:51;;;;;;;21.05;4.30;;;;;;;10.40;81.90;100920.47;6218107;23;20030;-87
2022/01/03 11:13:15;;;;;;;;;;;;;;;10.71;81.64;100918.91;6223810;23;20019;-90
2022/01/03 11:15:57;;;;;;;16.83;3.95;;;;;;;10.97;80.12;100907.09;6218620;23;19907;-90
2022/01/03 11:18:25;;;;;;;21.77;4.07;;;;;;;10.76;79.23;100861.25;6218601;23;20081;-89
2022/01/03 11:21:15;;;;;;;17.13;3.60;;;;;;;10.98;80.53;100906.03;6218423;23;20008;-89
2022/01/03 11:23:48;;;;;;;22.33;4.28;;;;;;;10.70;79.73;100871.09;6244560;22;20010;-89
2022/01/03 11:26:16;;;;;;;22.45;4.43;;;;;;;10.73;79.60;100875.25;6218508;23;20008;-90
2022/01/03 11:28:46;;;;;;;20.05;3.75;;;;;;;10.83;78.77;100849.31;6218256;23;20015;-90
2022/01/03 11:31:17;;;;;;;18.13;3.65;;;;;;;10.91;78.60;100858.25;6243795;23;20082;-89
2022/01/03 11:33:42;;;;;;;22.48;3.85;;;;;;;10.64;78.98;100853.78;6218245;23;20012;-89
2022/01/03 11:36:08;;;;;;;20.35;4.00;;;;;;;10.42;79.71;100858.69;6243786;23;20110;-89
2022/01/03 11:38:41;;;;;;;19.67;3.50;;;;;;;10.32;80.60;100861.81;6217988;23;20015;-90
2022/01/03 11:41:16;;;;;;;18.80;4.25;;;;;;;10.23;80.69;100876.66;6244972;23;20019;-90
2022/01/03 11:43:44;;;;;;;22.42;3.97;;;;;;;9.93;82.10;100830.22;6193359;23;20011;-90
2022/01/03 11:46:10;;;;;;;21.13;3.78;;;;;;;9.72;83.86;100832.13;6218279;23;20357;-89
2022/01/03 11:48:36;;;;;;;18.50;4.07;;;;;;;9.68;84.85;100870.69;6218026;23;20006;-89
2022/01/03 11:51:10;;;;;;;21.83;4.25;;;;;;;9.45;85.11;100826.72;6193873;23;20036;-89
2022/01/03 11:53:49;;;;;;;24.38;3.53;;;;;;;9.66;85.48;100858.19;6217908;23;20000;-89
2022/01/03 11:56:21;;;;;;;15.77;3.30;;;;;;;9.47;86.33;100804.84;6218005;23;20011;-89
2022/01/03 11:59:06;;;;;;;;;;;;;;;9.88;85.62;100857.13;6217779;23;20304;-89
2022/01/03 12:04:37;;;;;;;18.25;4.03;;;;;;;9.95;84.65;100847.09;6245293;23;20473;-89
2022/01/03 12:07:06;;;;;;;17.67;4.00;;;;;;;10.05;84.65;100850.19;6218055;23;20012;-89
2022/01/03 12:09:37;;;;;;;20.17;4.03;;;;;;;9.86;83.90;100808.53;6218278;23;20095;-89
2022/01/03 12:12:12;;;;;;;21.42;3.78;;;;;;;10.00;83.47;100822.91;6193799;23;20098;-89
2022/01/03 12:14:46;;;;;;;14.35;3.38;;;;;;;9.82;83.29;100789.19;6216987;23;20008;-89
2022/01/03 12:17:42;;;;;;;19.20;3.42;;;;;;;10.25;83.08;100847.44;6216583;23;20022;-89
2022/01/03 12:20:13;;;;;;;18.55;3.72;;;;;;;10.00;82.11;100790.38;6220807;23;20000;-89
2022/01/03 12:22:52;;;;;;;14.70;3.22;;;;;;;10.31;82.58;100832.22;6244979;23;20050;-88